sensor_id;sensor_type;location;lat;lon;timestamp;temperature;humidity
2030;DHT22;1020;48.854;8.830;2023-05-10T00:01:22;11.70;99.90
2030;DHT22;1020;48.854;8.830;2023-05-10T00:03:49;11.70;99.90
2030;DHT22;1020;48.854;8.830;2023-05-10T00:06:15;11.70;99.90
2030;DHT22;1020;48.854;8.830;2023-05-10T00:08:42;11.70;99.90
2030;DHT22;1020;48.854;8.830;2023-05-10T00:11:09;11.70;99.90
2030;DHT22;1020;48.854;8.830;2023-05-10T00:13:37;11.60;99.90
2030;DHT22;1020;48.854;8.830;2023-05-10T00:16:04;11.70;99.90
2030;DHT22;1020;48.854;8.830;2023-05-10T00:18:31;11.70;99.90
2030;DHT22;1020;48.854;8.830;2023-05-10T00:20:58;11.60;99.90
2030;DHT22;1020;48.854;8.830;2023-05-10T00:23:25;11.60;99.90
2030;DHT22;1020;48.854;8.830;2023-05-10T00:25:51;11.60;99.90
2030;DHT22;1020;48.854;8.830;2023-05-10T00:28:18;11.60;99.90
2030;DHT22;1020;48.854;8.830;2023-05-10T00:30:46;11.60;99.90
2030;DHT22;1020;48.854;8.830;2023-05-10T00:33:13;11.50;99.90
2030;DHT22;1020;48.854;8.830;2023-05-10T00:35:40;11.50;99.90
2030;DHT22;1020;48.854;8.830;2023-05-10T00:38:06;11.50;99.90
2030;DHT22;1020;48.854;8.830;2023-05-10T00:40:35;11.50;99.90
2030;DHT22;1020;48.854;8.830;2023-05-10T00:43:02;11.50;99.90
2030;DHT22;1020;48.854;8.830;2023-05-10T00:45:29;11.50;99.90
2030;DHT22;1020;48.854;8.830;2023-05-10T00:47:58;11.50;99.90
2030;DHT22;1020;48.854;8.830;2023-05-10T00:50:33;11.50;99.90
2030;DHT22;1020;48.854;8.830;2023-05-10T00:53:01;11.50;99.90
2030;DHT22;1020;48.854;8.830;2023-05-10T00:55:29;11.60;99.90
2030;DHT22;1020;48.854;8.830;2023-05-10T00:57:56;11.50;99.90
2030;DHT22;1020;48.854;8.830;2023-05-10T01:00:23;11.60;99.90
2030;DHT22;1020;48.854;8.830;2023-05-10T01:02:51;11.60;99.90
2030;DHT22;1020;48.854;8.830;2023-05-10T01:05:18;11.60;99.90
2030;DHT22;1020;48.854;8.830;2023-05-10T01:07:46;11.60;99.90
2030;DHT22;1020;48.854;8.830;2023-05-10T01:10:13;9.60;99.90
2030;DHT22;1020;48.854;8.830;2023-05-10T01:12:42;11.60;99.90
2030;DHT22;1020;48.854;8.830;2023-05-10T01:15:11;11.70;99.90
2030;DHT22;1020;48.854;8.830;2023-05-10T01:17:39;11.60;99.90
2030;DHT22;1020;48.854;8.830;2023-05-10T01:20:08;11.70;99.90
2030;DHT22;1020;48.854;8.830;2023-05-10T01:22:57;11.60;99.90
2030;DHT22;1020;48.854;8.830;2023-05-10T01:25:36;11.70;99.90
2030;DHT22;1020;48.854;8.830;2023-05-10T01:31:27;11.70;99.90
2030;DHT22;1020;48.854;8.830;2023-05-10T01:33:59;11.70;99.90
2030;DHT22;1020;48.854;8.830;2023-05-10T01:36:31;11.70;99.90
2030;DHT22;1020;48.854;8.830;2023-05-10T01:39:02;11.70;99.90
2030;DHT22;1020;48.854;8.830;2023-05-10T01:41:38;11.70;99.90
2030;DHT22;1020;48.854;8.830;2023-05-10T01:44:13;11.80;99.90
2030;DHT22;1020;48.854;8.830;2023-05-10T01:46:41;11.70;99.90
2030;DHT22;1020;48.854;8.830;2023-05-10T01:49:13;11.80;99.90
2030;DHT22;1020;48.854;8.830;2023-05-10T01:51:45;11.80;99.90
2030;DHT22;1020;48.854;8.830;2023-05-10T01:54:14;11.80;99.90
2030;DHT22;1020;48.854;8.830;2023-05-10T01:56:44;11.80;99.90
2030;DHT22;1020;48.854;8.830;2023-05-10T01:59:13;11.80;99.90
2030;DHT22;1020;48.854;8.830;2023-05-10T02:01:43;11.70;99.90
2030;DHT22;1020;48.854;8.830;2023-05-10T02:04:15;11.70;99.90
2030;DHT22;1020;48.854;8.830;2023-05-10T02:06:43;11.70;99.90
2030;DHT22;1020;48.854;8.830;2023-05-10T02:09:12;11.70;99.90
2030;DHT22;1020;48.854;8.830;2023-05-10T02:11:41;11.70;99.90
2030;DHT22;1020;48.854;8.830;2023-05-10T02:14:10;11.70;99.90
2030;DHT22;1020;48.854;8.830;2023-05-10T02:16:39;11.70;99.90
2030;DHT22;1020;48.854;8.830;2023-05-10T02:19:06;11.70;99.90
2030;DHT22;1020;48.854;8.830;2023-05-10T02:21:35;11.70;99.90
2030;DHT22;1020;48.854;8.830;2023-05-10T02:24:04;11.70;99.90
2030;DHT22;1020;48.854;8.830;2023-05-10T02:26:33;11.70;99.90
2030;DHT22;1020;48.854;8.830;2023-05-10T02:29:02;11.70;99.90
2030;DHT22;1020;48.854;8.830;2023-05-10T02:31:30;11.80;99.90
2030;DHT22;1020;48.854;8.830;2023-05-10T02:33:58;11.80;99.90
2030;DHT22;1020;48.854;8.830;2023-05-10T02:36:26;11.80;99.90
2030;DHT22;1020;48.854;8.830;2023-05-10T02:38:55;11.80;99.90
2030;DHT22;1020;48.854;8.830;2023-05-10T02:41:23;11.80;99.90
2030;DHT22;1020;48.854;8.830;2023-05-10T02:43:50;11.80;99.90
2030;DHT22;1020;48.854;8.830;2023-05-10T02:46:18;11.80;99.90
2030;DHT22;1020;48.854;8.830;2023-05-10T02:48:45;11.90;99.90
2030;DHT22;1020;48.854;8.830;2023-05-10T02:51:13;11.90;99.90
2030;DHT22;1020;48.854;8.830;2023-05-10T02:53:44;11.90;99.90
2030;DHT22;1020;48.854;8.830;2023-05-10T02:56:16;11.90;99.90
2030;DHT22;1020;48.854;8.830;2023-05-10T02:58:46;11.90;99.90
2030;DHT22;1020;48.854;8.830;2023-05-10T03:01:13;11.90;99.90
2030;DHT22;1020;48.854;8.830;2023-05-10T03:03:39;11.80;99.90
2030;DHT22;1020;48.854;8.830;2023-05-10T03:06:06;11.90;99.90
2030;DHT22;1020;48.854;8.830;2023-05-10T03:08:33;11.90;99.90
2030;DHT22;1020;48.854;8.830;2023-05-10T03:11:12;11.90;99.90
2030;DHT22;1020;48.854;8.830;2023-05-10T03:13:52;11.90;99.90
2030;DHT22;1020;48.854;8.830;2023-05-10T03:16:26;12.00;99.90
2030;DHT22;1020;48.854;8.830;2023-05-10T03:18:56;12.00;99.90
2030;DHT22;1020;48.854;8.830;2023-05-10T03:21:29;11.90;99.90
2030;DHT22;1020;48.854;8.830;2023-05-10T03:23:59;11.90;99.90
2030;DHT22;1020;48.854;8.830;2023-05-10T03:26:29;11.90;99.90
2030;DHT22;1020;48.854;8.830;2023-05-10T03:28:58;11.90;99.90
2030;DHT22;1020;48.854;8.830;2023-05-10T03:31:25;11.90;99.90
2030;DHT22;1020;48.854;8.830;2023-05-10T03:33:53;11.90;99.90
2030;DHT22;1020;48.854;8.830;2023-05-10T03:36:19;11.90;99.90
2030;DHT22;1020;48.854;8.830;2023-05-10T03:38:46;11.90;99.90
2030;DHT22;1020;48.854;8.830;2023-05-10T03:41:13;11.90;99.90
2030;DHT22;1020;48.854;8.830;2023-05-10T03:43:40;11.90;99.90
2030;DHT22;1020;48.854;8.830;2023-05-10T03:46:08;12.00;99.90
2030;DHT22;1020;48.854;8.830;2023-05-10T03:48:35;11.90;99.90
2030;DHT22;1020;48.854;8.830;2023-05-10T03:51:02;11.90;99.90
2030;DHT22;1020;48.854;8.830;2023-05-10T03:53:28;11.90;99.90
2030;DHT22;1020;48.854;8.830;2023-05-10T03:55:55;11.90;99.90
2030;DHT22;1020;48.854;8.830;2023-05-10T03:58:22;9.80;99.90
2030;DHT22;1020;48.854;8.830;2023-05-10T04:00:49;11.90;99.90
2030;DHT22;1020;48.854;8.830;2023-05-10T04:03:17;11.90;99.90
2030;DHT22;1020;48.854;8.830;2023-05-10T04:05:44;11.90;99.90
2030;DHT22;1020;48.854;8.830;2023-05-10T04:08:11;11.90;99.90
2030;DHT22;1020;48.854;8.830;2023-05-10T04:10:37;11.90;99.90
2030;DHT22;1020;48.854;8.830;2023-05-10T04:13:05;11.90;99.90
2030;DHT22;1020;48.854;8.830;2023-05-10T04:15:31;11.90;99.90
2030;DHT22;1020;48.854;8.830;2023-05-10T04:17:58;11.90;99.90
2030;DHT22;1020;48.854;8.830;2023-05-10T04:20:27;11.90;99.90
2030;DHT22;1020;48.854;8.830;2023-05-10T04:22:53;11.90;99.90
2030;DHT22;1020;48.854;8.830;2023-05-10T04:25:20;11.90;99.90
2030;DHT22;1020;48.854;8.830;2023-05-10T04:27:47;11.90;99.90
2030;DHT22;1020;48.854;8.830;2023-05-10T04:30:14;11.90;99.90
2030;DHT22;1020;48.854;8.830;2023-05-10T04:32:41;11.90;99.90
2030;DHT22;1020;48.854;8.830;2023-05-10T04:35:08;11.90;99.90
2030;DHT22;1020;48.854;8.830;2023-05-10T04:37:37;11.80;99.90
2030;DHT22;1020;48.854;8.830;2023-05-10T04:40:05;11.80;99.90
2030;DHT22;1020;48.854;8.830;2023-05-10T04:42:32;11.80;99.90
2030;DHT22;1020;48.854;8.830;2023-05-10T04:44:59;11.90;99.90
2030;DHT22;1020;48.854;8.830;2023-05-10T04:47:25;11.90;99.90
2030;DHT22;1020;48.854;8.830;2023-05-10T04:49:52;11.90;99.90
2030;DHT22;1020;48.854;8.830;2023-05-10T04:52:19;11.90;99.90
2030;DHT22;1020;48.854;8.830;2023-05-10T04:54:47;12.00;99.90
2030;DHT22;1020;48.854;8.830;2023-05-10T04:57:14;12.00;99.90
2030;DHT22;1020;48.854;8.830;2023-05-10T04:59:40;12.00;99.90
2030;DHT22;1020;48.854;8.830;2023-05-10T05:02:07;12.00;99.90
2030;DHT22;1020;48.854;8.830;2023-05-10T05:04:34;12.00;99.90
2030;DHT22;1020;48.854;8.830;2023-05-10T05:07:01;12.00;99.90
2030;DHT22;1020;48.854;8.830;2023-05-10T05:09:28;12.10;99.90
2030;DHT22;1020;48.854;8.830;2023-05-10T05:11:58;12.10;99.90
2030;DHT22;1020;48.854;8.830;2023-05-10T05:14:26;12.10;99.90
2030;DHT22;1020;48.854;8.830;2023-05-10T05:16:53;12.20;99.90
2030;DHT22;1020;48.854;8.830;2023-05-10T05:19:20;12.20;99.90
2030;DHT22;1020;48.854;8.830;2023-05-10T05:21:47;12.30;99.90
2030;DHT22;1020;48.854;8.830;2023-05-10T05:24:16;12.20;99.90
2030;DHT22;1020;48.854;8.830;2023-05-10T05:26:43;12.10;99.90
2030;DHT22;1020;48.854;8.830;2023-05-10T05:29:11;12.20;99.90
2030;DHT22;1020;48.854;8.830;2023-05-10T05:31:38;12.20;99.90
2030;DHT22;1020;48.854;8.830;2023-05-10T05:34:05;12.20;99.90
2030;DHT22;1020;48.854;8.830;2023-05-10T05:36:31;12.30;99.90
2030;DHT22;1020;48.854;8.830;2023-05-10T05:38:58;12.30;99.90
2030;DHT22;1020;48.854;8.830;2023-05-10T05:41:25;12.30;99.90
2030;DHT22;1020;48.854;8.830;2023-05-10T05:43:52;12.40;99.90
2030;DHT22;1020;48.854;8.830;2023-05-10T05:46:20;12.50;99.90
2030;DHT22;1020;48.854;8.830;2023-05-10T05:48:47;12.50;99.90
2030;DHT22;1020;48.854;8.830;2023-05-10T05:51:13;12.50;99.90
2030;DHT22;1020;48.854;8.830;2023-05-10T05:53:40;12.50;99.90
2030;DHT22;1020;48.854;8.830;2023-05-10T05:56:07;12.40;99.90
2030;DHT22;1020;48.854;8.830;2023-05-10T05:58:35;12.50;99.90
2030;DHT22;1020;48.854;8.830;2023-05-10T06:01:02;12.40;99.90
2030;DHT22;1020;48.854;8.830;2023-05-10T06:03:30;12.40;99.90
2030;DHT22;1020;48.854;8.830;2023-05-10T06:05:56;12.40;99.90
2030;DHT22;1020;48.854;8.830;2023-05-10T06:08:23;12.40;99.90
2030;DHT22;1020;48.854;8.830;2023-05-10T06:10:51;12.50;99.90
2030;DHT22;1020;48.854;8.830;2023-05-10T06:13:17;12.40;99.90
2030;DHT22;1020;48.854;8.830;2023-05-10T06:15:44;12.50;99.90
2030;DHT22;1020;48.854;8.830;2023-05-10T06:18:11;12.60;99.90
2030;DHT22;1020;48.854;8.830;2023-05-10T06:20:41;12.70;99.90
2030;DHT22;1020;48.854;8.830;2023-05-10T06:23:08;12.60;99.90
2030;DHT22;1020;48.854;8.830;2023-05-10T06:25:35;12.60;99.90
2030;DHT22;1020;48.854;8.830;2023-05-10T06:28:02;12.70;99.90
2030;DHT22;1020;48.854;8.830;2023-05-10T06:30:29;12.70;99.90
2030;DHT22;1020;48.854;8.830;2023-05-10T06:39:45;13.00;99.90
2030;DHT22;1020;48.854;8.830;2023-05-10T06:42:12;13.10;99.90
2030;DHT22;1020;48.854;8.830;2023-05-10T06:44:39;13.30;99.90
2030;DHT22;1020;48.854;8.830;2023-05-10T06:47:06;15.30;99.90
2030;DHT22;1020;48.854;8.830;2023-05-10T06:49:32;13.40;99.90
2030;DHT22;1020;48.854;8.830;2023-05-10T06:51:59;13.60;99.90
2030;DHT22;1020;48.854;8.830;2023-05-10T06:54:26;15.50;99.90
2030;DHT22;1020;48.854;8.830;2023-05-10T06:56:54;13.50;99.90
2030;DHT22;1020;48.854;8.830;2023-05-10T06:59:21;13.50;99.90
2030;DHT22;1020;48.854;8.830;2023-05-10T07:01:49;13.50;99.90
2030;DHT22;1020;48.854;8.830;2023-05-10T07:04:16;13.50;73.30
2030;DHT22;1020;48.854;8.830;2023-05-10T07:06:43;13.40;99.90
2030;DHT22;1020;48.854;8.830;2023-05-10T07:09:11;13.50;94.80
2030;DHT22;1020;48.854;8.830;2023-05-10T07:11:38;13.40;69.60
2030;DHT22;1020;48.854;8.830;2023-05-10T07:14:06;13.50;68.50
2030;DHT22;1020;48.854;8.830;2023-05-10T07:16:33;13.40;62.80
2030;DHT22;1020;48.854;8.830;2023-05-10T07:19:00;13.50;79.50
2030;DHT22;1020;48.854;8.830;2023-05-10T07:21:27;13.50;59.80
2030;DHT22;1020;48.854;8.830;2023-05-10T07:23:54;13.50;65.20
2030;DHT22;1020;48.854;8.830;2023-05-10T07:26:21;13.60;57.90
2030;DHT22;1020;48.854;8.830;2023-05-10T07:28:48;13.70;39.60
2030;DHT22;1020;48.854;8.830;2023-05-10T07:31:16;13.80;46.70
2030;DHT22;1020;48.854;8.830;2023-05-10T07:33:43;13.80;9.00
2030;DHT22;1020;48.854;8.830;2023-05-10T07:36:09;13.80;29.40
2030;DHT22;1020;48.854;8.830;2023-05-10T07:38:36;13.80;10.80
2030;DHT22;1020;48.854;8.830;2023-05-10T07:41:03;13.80;13.20
2030;DHT22;1020;48.854;8.830;2023-05-10T07:43:30;13.90;16.70
2030;DHT22;1020;48.854;8.830;2023-05-10T07:45:57;13.90;19.00
2030;DHT22;1020;48.854;8.830;2023-05-10T07:48:26;14.20;4.60
2030;DHT22;1020;48.854;8.830;2023-05-10T07:50:53;14.40;1.00
2030;DHT22;1020;48.854;8.830;2023-05-10T07:53:19;14.40;1.00
2030;DHT22;1020;48.854;8.830;2023-05-10T07:55:50;14.20;1.00
2030;DHT22;1020;48.854;8.830;2023-05-10T07:58:17;14.30;1.00
2030;DHT22;1020;48.854;8.830;2023-05-10T08:00:43;14.40;1.00
2030;DHT22;1020;48.854;8.830;2023-05-10T08:03:10;14.60;1.00
2030;DHT22;1020;48.854;8.830;2023-05-10T08:05:38;14.60;1.00
2030;DHT22;1020;48.854;8.830;2023-05-10T08:08:05;14.80;1.00
2030;DHT22;1020;48.854;8.830;2023-05-10T08:10:32;14.50;1.00
2030;DHT22;1020;48.854;8.830;2023-05-10T08:12:59;14.50;1.00
2030;DHT22;1020;48.854;8.830;2023-05-10T08:15:26;14.50;1.00
2030;DHT22;1020;48.854;8.830;2023-05-10T08:17:52;14.20;1.00
2030;DHT22;1020;48.854;8.830;2023-05-10T08:20:20;14.10;1.00
2030;DHT22;1020;48.854;8.830;2023-05-10T08:22:48;14.00;1.00
2030;DHT22;1020;48.854;8.830;2023-05-10T08:25:15;14.00;1.00
2030;DHT22;1020;48.854;8.830;2023-05-10T08:27:42;14.10;1.00
2030;DHT22;1020;48.854;8.830;2023-05-10T08:30:09;14.20;1.00
2030;DHT22;1020;48.854;8.830;2023-05-10T08:32:36;14.10;1.00
2030;DHT22;1020;48.854;8.830;2023-05-10T08:35:03;14.20;1.00
2030;DHT22;1020;48.854;8.830;2023-05-10T08:37:30;14.40;1.00
2030;DHT22;1020;48.854;8.830;2023-05-10T08:39:59;14.60;1.00
2030;DHT22;1020;48.854;8.830;2023-05-10T08:42:28;14.90;1.00
2030;DHT22;1020;48.854;8.830;2023-05-10T08:44:57;15.00;1.00
2030;DHT22;1020;48.854;8.830;2023-05-10T08:47:25;14.90;1.00
2030;DHT22;1020;48.854;8.830;2023-05-10T08:49:52;15.00;1.00
2030;DHT22;1020;48.854;8.830;2023-05-10T08:52:21;15.50;1.00
2030;DHT22;1020;48.854;8.830;2023-05-10T08:54:48;16.00;71.40
2030;DHT22;1020;48.854;8.830;2023-05-10T08:57:16;16.30;99.90
2030;DHT22;1020;48.854;8.830;2023-05-10T08:59:43;16.30;99.90
2030;DHT22;1020;48.854;8.830;2023-05-10T09:02:11;16.10;1.00
2030;DHT22;1020;48.854;8.830;2023-05-10T09:04:39;15.60;99.90
2030;DHT22;1020;48.854;8.830;2023-05-10T09:07:06;15.30;99.90
2030;DHT22;1020;48.854;8.830;2023-05-10T09:09:34;14.90;1.00
2030;DHT22;1020;48.854;8.830;2023-05-10T09:12:01;14.70;1.00
2030;DHT22;1020;48.854;8.830;2023-05-10T09:14:29;14.40;1.00
2030;DHT22;1020;48.854;8.830;2023-05-10T09:16:56;14.30;1.00
2030;DHT22;1020;48.854;8.830;2023-05-10T09:19:23;14.10;1.00
2030;DHT22;1020;48.854;8.830;2023-05-10T09:21:50;14.00;35.60
2030;DHT22;1020;48.854;8.830;2023-05-10T09:24:16;14.00;38.30
2030;DHT22;1020;48.854;8.830;2023-05-10T09:26:47;14.10;53.00
2030;DHT22;1020;48.854;8.830;2023-05-10T09:29:14;14.40;1.00
2030;DHT22;1020;48.854;8.830;2023-05-10T09:31:48;15.00;1.00
2030;DHT22;1020;48.854;8.830;2023-05-10T09:34:17;15.70;1.00
2030;DHT22;1020;48.854;8.830;2023-05-10T09:36:54;16.30;99.90
2030;DHT22;1020;48.854;8.830;2023-05-10T09:39:30;16.50;99.90
2030;DHT22;1020;48.854;8.830;2023-05-10T09:41:58;16.50;99.90
2030;DHT22;1020;48.854;8.830;2023-05-10T09:44:25;16.30;99.90
2030;DHT22;1020;48.854;8.830;2023-05-10T09:46:53;16.20;1.00
2030;DHT22;1020;48.854;8.830;2023-05-10T09:49:21;15.70;99.90
2030;DHT22;1020;48.854;8.830;2023-05-10T09:51:50;15.50;1.00
2030;DHT22;1020;48.854;8.830;2023-05-10T09:54:24;15.20;21.80
2030;DHT22;1020;48.854;8.830;2023-05-10T09:56:51;14.40;65.70
2030;DHT22;1020;48.854;8.830;2023-05-10T09:59:18;13.70;99.90
2030;DHT22;1020;48.854;8.830;2023-05-10T10:01:49;13.30;99.90
2030;DHT22;1020;48.854;8.830;2023-05-10T10:04:18;13.30;99.90
2030;DHT22;1020;48.854;8.830;2023-05-10T10:06:46;13.40;99.90
2030;DHT22;1020;48.854;8.830;2023-05-10T10:09:14;13.50;99.90
2030;DHT22;1020;48.854;8.830;2023-05-10T10:11:40;13.50;99.90
2030;DHT22;1020;48.854;8.830;2023-05-10T10:14:07;13.50;99.90
2030;DHT22;1020;48.854;8.830;2023-05-10T10:16:34;13.70;67.00
2030;DHT22;1020;48.854;8.830;2023-05-10T10:19:01;13.50;19.00
2030;DHT22;1020;48.854;8.830;2023-05-10T10:21:29;13.80;1.00
2030;DHT22;1020;48.854;8.830;2023-05-10T10:23:56;14.00;1.00
2030;DHT22;1020;48.854;8.830;2023-05-10T10:26:24;14.00;1.00
2030;DHT22;1020;48.854;8.830;2023-05-10T10:29:00;14.10;1.00
2030;DHT22;1020;48.854;8.830;2023-05-10T10:31:34;14.20;1.00
2030;DHT22;1020;48.854;8.830;2023-05-10T10:34:05;14.50;1.00
2030;DHT22;1020;48.854;8.830;2023-05-10T10:36:40;14.40;1.00
2030;DHT22;1020;48.854;8.830;2023-05-10T10:39:09;14.70;99.90
2030;DHT22;1020;48.854;8.830;2023-05-10T10:41:37;14.90;99.90
2030;DHT22;1020;48.854;8.830;2023-05-10T10:44:25;15.20;99.90
2030;DHT22;1020;48.854;8.830;2023-05-10T10:47:00;15.10;1.00
2030;DHT22;1020;48.854;8.830;2023-05-10T10:49:28;15.40;1.00
2030;DHT22;1020;48.854;8.830;2023-05-10T10:52:14;15.70;1.00
2030;DHT22;1020;48.854;8.830;2023-05-10T10:54:44;15.70;99.90
2030;DHT22;1020;48.854;8.830;2023-05-10T10:57:14;15.70;99.90
2030;DHT22;1020;48.854;8.830;2023-05-10T10:59:44;15.70;99.90
2030;DHT22;1020;48.854;8.830;2023-05-10T11:02:33;16.00;1.00
2030;DHT22;1020;48.854;8.830;2023-05-10T11:05:10;15.90;16.10
2030;DHT22;1020;48.854;8.830;2023-05-10T11:07:54;15.60;1.00
2030;DHT22;1020;48.854;8.830;2023-05-10T11:10:22;15.70;54.90
2030;DHT22;1020;48.854;8.830;2023-05-10T11:12:52;15.40;99.90
2030;DHT22;1020;48.854;8.830;2023-05-10T11:15:19;15.10;99.90
2030;DHT22;1020;48.854;8.830;2023-05-10T11:17:48;14.90;1.00
2030;DHT22;1020;48.854;8.830;2023-05-10T11:20:17;14.50;1.00
2030;DHT22;1020;48.854;8.830;2023-05-10T11:22:51;14.40;1.00
2030;DHT22;1020;48.854;8.830;2023-05-10T11:25:22;14.40;1.00
2030;DHT22;1020;48.854;8.830;2023-05-10T11:27:52;14.50;99.90
2030;DHT22;1020;48.854;8.830;2023-05-10T11:30:19;14.30;1.00
2030;DHT22;1020;48.854;8.830;2023-05-10T11:32:46;14.30;1.00
2030;DHT22;1020;48.854;8.830;2023-05-10T11:35:13;14.50;65.30
2030;DHT22;1020;48.854;8.830;2023-05-10T11:37:41;14.60;99.90
2030;DHT22;1020;48.854;8.830;2023-05-10T11:40:10;14.70;1.00
2030;DHT22;1020;48.854;8.830;2023-05-10T11:42:38;14.80;99.90
2030;DHT22;1020;48.854;8.830;2023-05-10T11:45:06;15.00;1.00
2030;DHT22;1020;48.854;8.830;2023-05-10T11:47:33;15.20;99.90
2030;DHT22;1020;48.854;8.830;2023-05-10T11:50:02;15.30;1.00
2030;DHT22;1020;48.854;8.830;2023-05-10T11:52:29;15.50;99.90
2030;DHT22;1020;48.854;8.830;2023-05-10T11:55:01;15.60;1.00
2030;DHT22;1020;48.854;8.830;2023-05-10T11:57:29;15.70;99.90
2030;DHT22;1020;48.854;8.830;2023-05-10T11:59:58;15.70;99.90
2030;DHT22;1020;48.854;8.830;2023-05-10T12:02:25;15.50;1.00
2030;DHT22;1020;48.854;8.830;2023-05-10T12:04:52;15.00;1.00
2030;DHT22;1020;48.854;8.830;2023-05-10T12:07:19;15.20;1.00
2030;DHT22;1020;48.854;8.830;2023-05-10T12:10:07;15.10;1.00
2030;DHT22;1020;48.854;8.830;2023-05-10T12:12:38;15.30;49.20
2030;DHT22;1020;48.854;8.830;2023-05-10T12:15:11;15.20;23.20
2030;DHT22;1020;48.854;8.830;2023-05-10T12:17:38;15.20;1.00
2030;DHT22;1020;48.854;8.830;2023-05-10T12:20:16;15.20;99.90
2030;DHT22;1020;48.854;8.830;2023-05-10T12:22:47;15.30;42.20
2030;DHT22;1020;48.854;8.830;2023-05-10T12:25:15;15.20;99.90
2030;DHT22;1020;48.854;8.830;2023-05-10T12:27:48;14.80;1.00
2030;DHT22;1020;48.854;8.830;2023-05-10T12:30:21;15.00;1.00
2030;DHT22;1020;48.854;8.830;2023-05-10T12:32:47;15.10;99.90
2030;DHT22;1020;48.854;8.830;2023-05-10T12:35:15;15.20;1.00
2030;DHT22;1020;48.854;8.830;2023-05-10T12:37:42;15.40;1.00
2030;DHT22;1020;48.854;8.830;2023-05-10T12:40:10;15.70;99.90
2030;DHT22;1020;48.854;8.830;2023-05-10T12:42:38;15.60;11.70
2030;DHT22;1020;48.854;8.830;2023-05-10T12:45:06;16.00;32.80
2030;DHT22;1020;48.854;8.830;2023-05-10T12:47:35;15.80;99.90
2030;DHT22;1020;48.854;8.830;2023-05-10T12:50:03;16.00;1.00
2030;DHT22;1020;48.854;8.830;2023-05-10T12:52:31;16.10;1.00
2030;DHT22;1020;48.854;8.830;2023-05-10T12:54:58;16.10;99.90
2030;DHT22;1020;48.854;8.830;2023-05-10T12:57:25;16.20;99.90
2030;DHT22;1020;48.854;8.830;2023-05-10T12:59:53;16.00;99.90
2030;DHT22;1020;48.854;8.830;2023-05-10T13:02:20;16.20;99.90
2030;DHT22;1020;48.854;8.830;2023-05-10T13:04:49;16.50;1.00
2030;DHT22;1020;48.854;8.830;2023-05-10T13:07:16;16.50;1.00
2030;DHT22;1020;48.854;8.830;2023-05-10T13:09:43;16.70;99.90
2030;DHT22;1020;48.854;8.830;2023-05-10T13:12:10;16.70;99.90
2030;DHT22;1020;48.854;8.830;2023-05-10T13:14:36;16.50;93.80
2030;DHT22;1020;48.854;8.830;2023-05-10T13:17:05;16.60;99.90
2030;DHT22;1020;48.854;8.830;2023-05-10T13:19:32;16.60;99.90
2030;DHT22;1020;48.854;8.830;2023-05-10T13:22:00;16.40;69.90
2030;DHT22;1020;48.854;8.830;2023-05-10T13:24:27;16.60;99.90
2030;DHT22;1020;48.854;8.830;2023-05-10T13:26:54;16.90;99.90
2030;DHT22;1020;48.854;8.830;2023-05-10T13:31:49;16.90;99.90
2030;DHT22;1020;48.854;8.830;2023-05-10T13:34:15;16.60;1.00
2030;DHT22;1020;48.854;8.830;2023-05-10T13:36:45;16.70;10.40
2030;DHT22;1020;48.854;8.830;2023-05-10T13:39:14;16.90;50.80
2030;DHT22;1020;48.854;8.830;2023-05-10T13:41:40;16.90;1.00
2030;DHT22;1020;48.854;8.830;2023-05-10T13:44:07;16.50;1.00
2030;DHT22;1020;48.854;8.830;2023-05-10T13:46:34;16.50;83.10
2030;DHT22;1020;48.854;8.830;2023-05-10T13:49:01;16.40;92.70
2030;DHT22;1020;48.854;8.830;2023-05-10T13:51:27;16.60;57.00
2030;DHT22;1020;48.854;8.830;2023-05-10T13:53:54;16.30;99.90
2030;DHT22;1020;48.854;8.830;2023-05-10T13:56:22;16.50;58.20
2030;DHT22;1020;48.854;8.830;2023-05-10T13:58:49;16.50;99.90
2030;DHT22;1020;48.854;8.830;2023-05-10T14:01:16;16.50;99.90
2030;DHT22;1020;48.854;8.830;2023-05-10T14:03:43;16.70;94.30
2030;DHT22;1020;48.854;8.830;2023-05-10T14:06:10;16.80;99.90
2030;DHT22;1020;48.854;8.830;2023-05-10T14:08:37;17.00;39.00
2030;DHT22;1020;48.854;8.830;2023-05-10T14:11:04;16.90;23.60
2030;DHT22;1020;48.854;8.830;2023-05-10T14:13:32;16.90;42.10
2030;DHT22;1020;48.854;8.830;2023-05-10T14:15:58;16.70;1.00
2030;DHT22;1020;48.854;8.830;2023-05-10T14:18:26;16.60;1.00
2030;DHT22;1020;48.854;8.830;2023-05-10T14:20:53;16.50;1.00
2030;DHT22;1020;48.854;8.830;2023-05-10T14:23:21;16.50;1.00
2030;DHT22;1020;48.854;8.830;2023-05-10T14:25:49;16.50;12.80
2030;DHT22;1020;48.854;8.830;2023-05-10T14:28:16;16.80;1.00
2030;DHT22;1020;48.854;8.830;2023-05-10T14:30:45;16.70;1.00
2030;DHT22;1020;48.854;8.830;2023-05-10T14:33:11;16.70;1.00
2030;DHT22;1020;48.854;8.830;2023-05-10T14:35:38;16.50;1.00
2030;DHT22;1020;48.854;8.830;2023-05-10T14:38:05;16.50;1.00
2030;DHT22;1020;48.854;8.830;2023-05-10T14:40:32;16.40;1.00
2030;DHT22;1020;48.854;8.830;2023-05-10T14:42:59;16.50;1.00
2030;DHT22;1020;48.854;8.830;2023-05-10T14:45:26;16.60;12.90
2030;DHT22;1020;48.854;8.830;2023-05-10T14:47:55;16.40;1.00
2030;DHT22;1020;48.854;8.830;2023-05-10T14:50:21;16.40;1.00
2030;DHT22;1020;48.854;8.830;2023-05-10T14:52:48;16.60;1.00
2030;DHT22;1020;48.854;8.830;2023-05-10T14:55:15;16.80;9.10
2030;DHT22;1020;48.854;8.830;2023-05-10T14:57:42;16.90;1.00
2030;DHT22;1020;48.854;8.830;2023-05-10T15:00:12;16.60;1.00
2030;DHT22;1020;48.854;8.830;2023-05-10T15:02:41;16.80;1.00
2030;DHT22;1020;48.854;8.830;2023-05-10T15:05:09;16.80;1.00
2030;DHT22;1020;48.854;8.830;2023-05-10T15:07:36;17.00;1.00
2030;DHT22;1020;48.854;8.830;2023-05-10T15:10:03;17.00;1.00
2030;DHT22;1020;48.854;8.830;2023-05-10T15:12:30;17.00;1.00
2030;DHT22;1020;48.854;8.830;2023-05-10T15:14:57;17.10;1.00
2030;DHT22;1020;48.854;8.830;2023-05-10T15:17:23;16.90;1.00
2030;DHT22;1020;48.854;8.830;2023-05-10T15:19:50;16.70;1.00
2030;DHT22;1020;48.854;8.830;2023-05-10T15:22:18;16.70;1.00
2030;DHT22;1020;48.854;8.830;2023-05-10T15:24:46;16.90;1.00
2030;DHT22;1020;48.854;8.830;2023-05-10T15:27:13;17.10;1.00
2030;DHT22;1020;48.854;8.830;2023-05-10T15:29:40;17.10;1.00
2030;DHT22;1020;48.854;8.830;2023-05-10T15:32:07;17.10;1.00
2030;DHT22;1020;48.854;8.830;2023-05-10T15:34:33;16.90;1.00
2030;DHT22;1020;48.854;8.830;2023-05-10T15:37:01;16.60;1.00
2030;DHT22;1020;48.854;8.830;2023-05-10T15:39:29;16.50;1.00
2030;DHT22;1020;48.854;8.830;2023-05-10T15:41:56;16.60;1.00
2030;DHT22;1020;48.854;8.830;2023-05-10T15:44:23;16.80;1.00
2030;DHT22;1020;48.854;8.830;2023-05-10T15:46:50;16.80;1.00
2030;DHT22;1020;48.854;8.830;2023-05-10T15:49:17;16.70;1.00
2030;DHT22;1020;48.854;8.830;2023-05-10T15:51:44;16.40;1.00
2030;DHT22;1020;48.854;8.830;2023-05-10T15:54:10;16.20;1.00
2030;DHT22;1020;48.854;8.830;2023-05-10T15:56:39;16.00;1.00
2030;DHT22;1020;48.854;8.830;2023-05-10T15:59:05;16.00;1.00
2030;DHT22;1020;48.854;8.830;2023-05-10T16:01:33;15.90;1.00
2030;DHT22;1020;48.854;8.830;2023-05-10T16:04:00;16.00;1.00
2030;DHT22;1020;48.854;8.830;2023-05-10T16:06:27;16.10;51.80
2030;DHT22;1020;48.854;8.830;2023-05-10T16:08:54;16.10;17.50
2030;DHT22;1020;48.854;8.830;2023-05-10T16:11:21;15.90;56.20
2030;DHT22;1020;48.854;8.830;2023-05-10T16:13:49;15.90;9.70
2030;DHT22;1020;48.854;8.830;2023-05-10T16:16:16;15.80;48.70
2030;DHT22;1020;48.854;8.830;2023-05-10T16:18:42;15.70;32.90
2030;DHT22;1020;48.854;8.830;2023-05-10T16:21:10;15.70;1.00
2030;DHT22;1020;48.854;8.830;2023-05-10T16:23:37;15.80;1.00
2030;DHT22;1020;48.854;8.830;2023-05-10T16:26:03;15.90;1.00